createdAt,value
2023-02-27T00:00:16.597Z,102682.06
2023-02-27T00:02:45.872Z,102685.00
2023-02-27T00:05:13.563Z,102686.97
2023-02-27T00:07:40.628Z,102690.16
2023-02-27T00:10:08.371Z,102684.44
2023-02-27T00:12:39.188Z,102690.13
2023-02-27T00:15:11.694Z,102692.63
2023-02-27T00:17:38.865Z,102688.22
2023-02-27T00:20:07.756Z,102694.47
2023-02-27T00:22:34.313Z,102690.13
2023-02-27T00:25:00.906Z,102689.31
2023-02-27T00:27:27.772Z,102679.03
2023-02-27T00:29:54.347Z,102680.91
2023-02-27T00:32:21.278Z,102679.44
2023-02-27T00:34:48.030Z,102682.72
2023-02-27T00:37:14.735Z,102684.50
2023-02-27T00:39:41.337Z,102681.81
2023-02-27T00:42:08.139Z,102676.88
2023-02-27T00:44:35.058Z,102673.47
2023-02-27T00:47:01.975Z,102673.84
2023-02-27T00:49:28.562Z,102676.09
2023-02-27T00:51:55.126Z,102671.97
2023-02-27T00:54:23.533Z,102678.00
2023-02-27T00:56:50.246Z,102673.06
2023-02-27T00:59:17.218Z,102672.59
2023-02-27T01:01:45.182Z,102676.34
2023-02-27T01:04:11.782Z,102673.78
2023-02-27T01:06:38.461Z,102674.88
2023-02-27T01:09:05.329Z,102675.06
2023-02-27T01:11:32.326Z,102661.56
2023-02-27T01:14:00.165Z,102657.41
2023-02-27T01:16:26.809Z,102666.88
2023-02-27T01:18:53.966Z,102661.66
2023-02-27T01:21:23.309Z,102664.22
2023-02-27T01:23:50.134Z,102666.44
2023-02-27T01:26:19.356Z,102674.28
2023-02-27T01:28:46.885Z,102670.28
2023-02-27T01:31:14.168Z,102673.75
2023-02-27T01:33:40.740Z,102662.53
2023-02-27T01:36:07.902Z,102666.06
2023-02-27T01:38:34.753Z,102656.53
2023-02-27T01:41:01.397Z,102656.44
2023-02-27T01:43:28.365Z,102660.13
2023-02-27T01:45:55.615Z,102661.16
2023-02-27T01:48:27.139Z,102660.47
2023-02-27T01:51:12.296Z,102662.16
2023-02-27T01:53:41.085Z,102663.84
2023-02-27T01:56:11.228Z,102658.50
2023-02-27T01:58:38.514Z,102650.88
2023-02-27T02:01:05.453Z,102655.00
2023-02-27T02:04:01.033Z,102646.59
2023-02-27T02:06:35.536Z,102648.31
2023-02-27T02:09:03.780Z,102647.63
2023-02-27T02:11:30.344Z,102640.31
2023-02-27T02:14:00.059Z,102645.44
2023-02-27T02:16:35.579Z,102646.09
2023-02-27T02:19:35.793Z,102640.31
2023-02-27T02:22:48.360Z,102653.16
2023-02-27T02:25:42.672Z,102646.75
2023-02-27T02:28:18.235Z,102652.22
2023-02-27T02:31:12.553Z,102643.34
2023-02-27T02:34:00.333Z,102644.50
2023-02-27T02:36:38.760Z,102649.72
2023-02-27T02:39:12.080Z,102643.75
2023-02-27T02:42:04.972Z,102654.34
2023-02-27T02:45:11.240Z,102647.69
2023-02-27T02:48:03.718Z,102661.91
2023-02-27T02:50:53.969Z,102662.13
2023-02-27T02:53:36.720Z,102661.94
2023-02-27T02:56:19.696Z,102662.22
2023-02-27T02:58:49.490Z,102656.31
2023-02-27T03:01:22.876Z,102667.63
2023-02-27T03:04:05.922Z,102662.69
2023-02-27T03:06:36.214Z,102657.09
2023-02-27T03:09:11.819Z,102660.44
2023-02-27T03:11:43.102Z,102661.53
2023-02-27T03:14:25.889Z,102660.53
2023-02-27T03:16:56.070Z,102663.41
2023-02-27T03:19:31.048Z,102665.56
2023-02-27T03:22:05.378Z,102668.91
2023-02-27T03:24:50.193Z,102662.00
2023-02-27T03:27:18.983Z,102678.72
2023-02-27T03:29:58.143Z,102673.81
2023-02-27T03:32:31.579Z,102681.78
2023-02-27T03:34:59.000Z,102677.50
2023-02-27T03:37:58.186Z,102685.56
2023-02-27T03:40:52.493Z,102691.75
2023-02-27T03:43:38.668Z,102684.19
2023-02-27T03:46:08.472Z,102691.47
2023-02-27T03:48:35.279Z,102698.75
2023-02-27T03:51:02.355Z,102692.94
2023-02-27T03:53:37.496Z,102690.66
2023-02-27T03:56:07.741Z,102692.34
2023-02-27T03:58:35.379Z,102692.53
2023-02-27T04:01:02.357Z,102692.41
2023-02-27T04:03:32.919Z,102700.97
2023-02-27T04:06:19.816Z,102699.22
2023-02-27T04:08:58.756Z,102705.09
2023-02-27T04:11:37.290Z,102700.34
2023-02-27T04:14:10.862Z,102707.16
2023-02-27T04:16:52.679Z,102702.09
2023-02-27T04:19:48.579Z,102694.41
2023-02-27T04:22:28.822Z,102706.44
2023-02-27T04:25:20.928Z,102706.84
2023-02-27T04:27:57.839Z,102713.13
2023-02-27T04:30:52.083Z,102707.78
2023-02-27T04:33:53.832Z,102710.84
2023-02-27T04:36:30.381Z,102709.00
2023-02-27T04:39:05.696Z,102706.44
2023-02-27T04:41:43.384Z,102710.00
2023-02-27T04:44:12.533Z,102702.22
2023-02-27T04:46:42.671Z,102705.66
2023-02-27T04:49:16.376Z,102705.66
2023-02-27T04:51:48.015Z,102707.59
2023-02-27T04:54:22.557Z,102708.53
2023-02-27T04:56:56.621Z,102713.66
2023-02-27T04:59:36.148Z,102711.97
2023-02-27T05:02:14.845Z,102712.66
2023-02-27T05:04:44.942Z,102716.91
2023-02-27T05:07:17.596Z,102718.53
2023-02-27T05:09:58.251Z,102724.53
2023-02-27T05:12:47.749Z,102718.66
2023-02-27T05:15:24.738Z,102721.91
2023-02-27T05:18:14.701Z,102717.84
2023-02-27T05:20:41.366Z,102726.53
2023-02-27T05:23:32.070Z,102727.50
2023-02-27T05:26:05.982Z,102729.34
2023-02-27T05:28:47.579Z,102736.16
2023-02-27T05:31:28.535Z,102728.47
2023-02-27T05:34:12.358Z,102738.00
2023-02-27T05:37:07.139Z,102733.59
2023-02-27T05:39:37.328Z,102741.16
2023-02-27T05:42:17.264Z,102738.69
2023-02-27T05:44:50.384Z,102750.13
2023-02-27T05:47:20.299Z,102739.09
2023-02-27T05:49:52.344Z,102744.78
2023-02-27T05:52:23.162Z,102740.47
2023-02-27T05:55:06.498Z,102746.28
2023-02-27T05:57:39.855Z,102741.94
2023-02-27T06:00:21.554Z,102738.53
2023-02-27T06:02:48.531Z,102751.50
2023-02-27T06:05:17.879Z,102754.97
2023-02-27T06:07:44.576Z,102751.34
2023-02-27T06:10:15.011Z,102764.09
2023-02-27T06:12:41.863Z,102765.91
2023-02-27T06:15:09.274Z,102764.22
2023-02-27T06:17:36.046Z,102770.50
2023-02-27T06:20:04.122Z,102762.84
2023-02-27T06:22:30.836Z,102763.94
2023-02-27T06:24:57.384Z,102758.88
2023-02-27T06:27:24.049Z,102767.38
2023-02-27T06:29:50.627Z,102776.69
2023-02-27T06:32:17.282Z,102773.31
2023-02-27T06:34:43.925Z,102780.94
2023-02-27T06:37:10.436Z,102781.81
2023-02-27T06:39:37.615Z,102779.25
2023-02-27T06:42:04.460Z,102786.41
2023-02-27T06:44:31.050Z,102780.34
2023-02-27T06:46:57.689Z,102789.59
2023-02-27T06:49:24.262Z,102787.84
2023-02-27T06:51:50.908Z,102793.72
2023-02-27T06:54:17.544Z,102798.00
2023-02-27T06:56:44.106Z,102802.16
2023-02-27T06:59:11.178Z,102809.88
2023-02-27T07:01:37.920Z,102813.19
2023-02-27T07:04:04.665Z,102824.31
2023-02-27T07:07:35.608Z,102825.81
2023-02-27T07:09:18.368Z,102832.63
2023-02-27T07:11:45.081Z,102840.97
2023-02-27T07:14:12.571Z,102832.31
2023-02-27T07:16:39.289Z,102834.91
2023-02-27T07:19:07.444Z,102844.31
2023-02-27T07:21:35.267Z,102846.69
2023-02-27T07:24:04.606Z,102850.53
2023-02-27T07:26:31.198Z,102858.66
2023-02-27T07:28:57.977Z,102849.78
2023-02-27T07:31:24.712Z,102848.84
2023-02-27T07:33:51.407Z,102841.78
2023-02-27T07:36:17.908Z,102848.28
2023-02-27T07:38:44.703Z,102845.38
2023-02-27T07:41:21.270Z,102846.94
2023-02-27T07:43:59.243Z,102844.91
2023-02-27T07:46:27.648Z,102848.16
2023-02-27T07:48:54.969Z,102844.72
2023-02-27T07:51:21.939Z,102840.94
2023-02-27T07:53:48.567Z,102842.28
2023-02-27T07:56:15.476Z,102847.34
2023-02-27T07:58:42.054Z,102843.56
2023-02-27T08:01:08.588Z,102841.59
2023-02-27T08:03:35.224Z,102845.41
2023-02-27T08:06:02.420Z,102842.78
2023-02-27T08:08:29.870Z,102842.28
2023-02-27T08:10:56.526Z,102843.19
2023-02-27T08:13:35.965Z,102833.47
2023-02-27T08:16:09.880Z,102846.09
2023-02-27T08:18:36.675Z,102844.91
2023-02-27T08:21:05.049Z,102846.41
2023-02-27T08:23:33.105Z,102847.78
2023-02-27T08:26:01.186Z,102848.44
2023-02-27T08:28:28.548Z,102851.75
2023-02-27T08:30:55.795Z,102853.94
2023-02-27T08:33:22.692Z,102856.34
2023-02-27T08:35:49.304Z,102860.25
2023-02-27T08:38:15.926Z,102858.41
2023-02-27T08:40:43.516Z,102870.06
2023-02-27T08:43:10.300Z,102874.69
2023-02-27T08:45:36.973Z,102872.69
2023-02-27T08:48:03.849Z,102875.09
2023-02-27T08:50:30.494Z,102878.13
2023-02-27T08:52:57.071Z,102873.22
2023-02-27T08:55:23.761Z,102876.44
2023-02-27T08:57:50.386Z,102879.03
2023-02-27T09:00:17.753Z,102883.16
2023-02-27T09:02:44.491Z,102888.78
2023-02-27T09:05:11.441Z,102893.59
2023-02-27T09:07:38.005Z,102889.00
2023-02-27T09:10:06.119Z,102897.22
2023-02-27T09:12:32.914Z,102893.38
2023-02-27T09:14:59.669Z,102898.78
2023-02-27T09:17:26.454Z,102897.00
2023-02-27T09:19:53.356Z,102897.47
2023-02-27T09:22:20.135Z,102888.47
2023-02-27T09:24:46.813Z,102885.53
2023-02-27T09:27:13.572Z,102890.88
2023-02-27T09:29:40.127Z,102895.28
2023-02-27T09:32:07.146Z,102895.44
2023-02-27T09:34:33.850Z,102889.75
2023-02-27T09:37:01.299Z,102894.97
2023-02-27T09:39:29.824Z,102892.09
2023-02-27T09:42:06.603Z,102882.59
2023-02-27T09:44:46.980Z,102889.66
2023-02-27T09:47:25.292Z,102888.41
2023-02-27T09:50:27.905Z,102894.47
2023-02-27T09:52:55.042Z,102892.63
2023-02-27T09:55:23.320Z,102890.03
2023-02-27T09:57:58.199Z,102883.88
2023-02-27T10:00:49.185Z,102882.75
2023-02-27T10:03:48.252Z,102890.00
2023-02-27T10:06:31.019Z,102884.16
2023-02-27T10:09:22.497Z,102883.47
2023-02-27T10:12:18.522Z,102890.31
2023-02-27T10:14:57.664Z,102884.50
2023-02-27T10:17:30.706Z,102885.69
2023-02-27T10:20:00.367Z,102893.03
2023-02-27T10:22:40.040Z,102887.63
2023-02-27T10:25:29.753Z,102899.59
2023-02-27T10:28:05.524Z,102882.16
2023-02-27T10:30:34.942Z,102890.50
2023-02-27T10:33:07.873Z,102894.59
2023-02-27T10:35:37.730Z,102882.50
2023-02-27T10:38:12.008Z,102891.75
2023-02-27T10:40:42.051Z,102878.44
2023-02-27T10:43:08.727Z,102886.78
2023-02-27T10:45:36.971Z,102873.09
2023-02-27T10:48:05.860Z,102870.91
2023-02-27T10:50:36.936Z,102879.97
2023-02-27T10:53:16.710Z,102863.44
2023-02-27T10:55:47.745Z,102862.34
2023-02-27T10:58:21.998Z,102865.59
2023-02-27T11:00:56.378Z,102866.81
2023-02-27T11:03:26.567Z,102856.25
2023-02-27T11:05:59.855Z,102863.09
2023-02-27T11:08:29.622Z,102849.16
2023-02-27T11:11:06.134Z,102849.41
2023-02-27T11:13:35.601Z,102845.72
2023-02-27T11:16:07.403Z,102846.22
2023-02-27T11:18:35.755Z,102836.94
2023-02-27T11:21:15.963Z,102836.00
2023-02-27T11:23:55.188Z,102842.22
2023-02-27T11:26:35.097Z,102838.25
2023-02-27T11:29:18.476Z,102825.38
2023-02-27T11:31:58.200Z,102825.44
2023-02-27T11:34:32.406Z,102816.22
2023-02-27T11:37:02.084Z,102825.84
2023-02-27T11:39:31.206Z,102824.34
2023-02-27T11:42:05.583Z,102812.69
2023-02-27T11:44:34.605Z,102805.38
2023-02-27T11:47:23.028Z,102801.03
2023-02-27T11:49:49.715Z,102807.47
2023-02-27T11:52:54.132Z,102793.59
2023-02-27T11:55:25.034Z,102798.72
2023-02-27T11:58:02.326Z,102794.41
2023-02-27T12:00:45.524Z,102792.47
2023-02-27T12:03:17.687Z,102795.78
2023-02-27T12:05:50.574Z,102789.31
2023-02-27T12:08:42.220Z,102788.78
2023-02-27T12:11:32.896Z,102786.91
2023-02-27T12:14:09.063Z,102791.03
2023-02-27T12:16:59.238Z,102794.69
2023-02-27T12:19:53.244Z,102804.19
2023-02-27T12:22:29.708Z,102796.81
2023-02-27T12:25:07.686Z,102786.72
2023-02-27T12:27:46.460Z,102796.00
2023-02-27T12:30:24.299Z,102795.81
2023-02-27T12:33:10.067Z,102779.31
2023-02-27T12:35:36.729Z,102785.00
2023-02-27T12:38:06.288Z,102780.94
2023-02-27T12:40:43.989Z,102779.53
2023-02-27T12:43:26.551Z,102769.03
2023-02-27T12:46:07.961Z,102759.84
2023-02-27T12:48:44.053Z,102776.03
2023-02-27T12:51:31.717Z,102774.66
2023-02-27T12:54:27.928Z,102779.84
2023-02-27T12:57:02.483Z,102773.22
2023-02-27T12:59:51.856Z,102768.56
2023-02-27T13:02:27.314Z,102770.75
2023-02-27T13:05:32.186Z,102765.44
2023-02-27T13:08:38.270Z,102760.31
2023-02-27T13:11:18.823Z,102766.88
2023-02-27T13:13:53.263Z,102765.06
2023-02-27T13:16:28.820Z,102763.81
2023-02-27T13:19:26.646Z,102761.44
2023-02-27T13:22:22.599Z,102757.63
2023-02-27T13:24:56.344Z,102757.75
2023-02-27T13:27:28.632Z,102750.47
2023-02-27T13:30:08.638Z,102758.06
2023-02-27T13:32:48.742Z,102762.41
2023-02-27T13:35:57.059Z,102757.22
2023-02-27T13:38:34.430Z,102758.31
2023-02-27T13:41:25.478Z,102756.56
2023-02-27T13:44:46.181Z,102757.03
2023-02-27T13:47:30.916Z,102765.75
2023-02-27T13:49:59.157Z,102766.06
2023-02-27T13:52:29.670Z,102754.53
2023-02-27T13:54:59.860Z,102753.59
2023-02-27T13:57:35.355Z,102761.28
2023-02-27T14:00:08.953Z,102756.19
2023-02-27T14:02:59.973Z,102759.94
2023-02-27T14:05:36.600Z,102760.47
2023-02-27T14:08:12.439Z,102756.81
2023-02-27T14:10:49.994Z,102754.34
2023-02-27T14:13:51.095Z,102750.16
2023-02-27T14:16:44.173Z,102746.63
2023-02-27T14:19:17.194Z,102739.06
2023-02-27T14:22:03.446Z,102748.00
2023-02-27T14:25:02.632Z,102744.75
2023-02-27T14:27:48.158Z,102742.56
2023-02-27T14:30:37.831Z,102753.25
2023-02-27T14:33:39.622Z,102757.88
2023-02-27T14:36:18.876Z,102749.22
2023-02-27T14:38:46.550Z,102741.66
2023-02-27T14:41:44.984Z,102747.44
2023-02-27T14:44:20.344Z,102743.28
2023-02-27T14:46:50.197Z,102732.06
2023-02-27T14:49:23.868Z,102737.38
2023-02-27T14:51:51.140Z,102741.66
2023-02-27T14:54:21.192Z,102730.22
2023-02-27T14:57:04.268Z,102733.66
2023-02-27T14:59:34.201Z,102726.69
2023-02-27T15:02:04.275Z,102735.22
2023-02-27T15:04:33.060Z,102724.72
2023-02-27T15:07:00.851Z,102724.81
2023-02-27T15:09:34.745Z,102719.13
2023-02-27T15:12:04.356Z,102712.47
2023-02-27T15:14:36.280Z,102718.16
2023-02-27T15:17:04.042Z,102725.38
2023-02-27T15:19:30.732Z,102719.31
2023-02-27T15:22:05.180Z,102721.09
2023-02-27T15:24:49.126Z,102715.78
2023-02-27T15:27:21.324Z,102719.22
2023-02-27T15:29:54.761Z,102722.53
2023-02-27T15:32:28.931Z,102725.00
2023-02-27T15:34:58.320Z,102725.41
2023-02-27T15:37:28.835Z,102728.53
2023-02-27T15:39:57.025Z,102727.09
2023-02-27T15:42:33.537Z,102720.75
2023-02-27T15:45:00.236Z,102725.44
2023-02-27T15:47:30.808Z,102721.28
2023-02-27T15:50:08.631Z,102720.56
2023-02-27T15:53:09.456Z,102718.38
2023-02-27T15:55:40.783Z,102719.63
2023-02-27T15:58:25.157Z,102714.94
2023-02-27T16:01:00.885Z,102716.78
2023-02-27T16:03:34.273Z,102713.88
2023-02-27T16:06:01.519Z,102715.94
2023-02-27T16:08:31.408Z,102722.25
2023-02-27T16:10:58.176Z,102724.50
2023-02-27T16:13:27.771Z,102731.53
2023-02-27T16:16:07.263Z,102725.69
2023-02-27T16:18:46.422Z,102735.41
2023-02-27T16:21:15.957Z,102736.44
2023-02-27T16:23:43.881Z,102738.38
2023-02-27T16:26:27.481Z,102736.34
2023-02-27T16:29:03.742Z,102747.94
2023-02-27T16:31:36.164Z,102741.06
2023-02-27T16:34:13.456Z,102742.75
2023-02-27T16:36:42.403Z,102739.03
2023-02-27T16:39:13.274Z,102747.38
2023-02-27T16:41:40.269Z,102754.34
2023-02-27T16:44:06.992Z,102747.22
2023-02-27T16:46:33.659Z,102757.03
2023-02-27T16:49:14.246Z,102761.38
2023-02-27T16:51:46.123Z,102754.25
2023-02-27T16:54:13.969Z,102769.22
2023-02-27T16:56:41.112Z,102768.66
2023-02-27T16:59:07.928Z,102770.25
2023-02-27T17:01:34.882Z,102769.97
2023-02-27T17:04:02.090Z,102771.19
2023-02-27T17:06:30.762Z,102759.88
2023-02-27T17:08:58.029Z,102765.66
2023-02-27T17:11:26.581Z,102768.16
2023-02-27T17:13:54.378Z,102769.34
2023-02-27T17:16:22.494Z,102770.44
2023-02-27T17:18:49.453Z,102771.97
2023-02-27T17:21:16.360Z,102768.81
2023-02-27T17:23:43.240Z,102767.28
2023-02-27T17:26:09.891Z,102765.53
2023-02-27T17:28:36.565Z,102769.34
2023-02-27T17:31:11.402Z,102777.00
2023-02-27T17:33:38.102Z,102768.38
2023-02-27T17:36:07.517Z,102774.41
2023-02-27T17:38:35.172Z,102779.56
2023-02-27T17:41:09.679Z,102784.44
2023-02-27T17:43:37.645Z,102779.44
2023-02-27T17:46:08.936Z,102780.88
2023-02-27T17:48:37.351Z,102788.88
2023-02-27T17:51:09.636Z,102796.97
2023-02-27T17:53:37.974Z,102803.97
2023-02-27T17:56:05.979Z,102794.53
2023-02-27T17:58:33.967Z,102799.78
2023-02-27T18:01:12.693Z,102806.38
2023-02-27T18:03:39.723Z,102806.81
2023-02-27T18:06:07.850Z,102802.63
2023-02-27T18:08:34.905Z,102808.28
2023-02-27T18:11:01.890Z,102818.75
2023-02-27T18:13:28.946Z,102814.09
2023-02-27T18:15:56.962Z,102813.50
2023-02-27T18:18:23.924Z,102821.00
2023-02-27T18:21:06.896Z,102818.25
2023-02-27T18:23:34.035Z,102821.34
2023-02-27T18:26:00.999Z,102830.03
2023-02-27T18:28:28.420Z,102827.84
2023-02-27T18:30:55.532Z,102831.03
2023-02-27T18:33:23.285Z,102827.56
2023-02-27T18:35:50.428Z,102833.34
2023-02-27T18:38:17.450Z,102832.38
2023-02-27T18:40:44.420Z,102826.41
2023-02-27T18:43:11.513Z,102834.19
2023-02-27T18:45:38.624Z,102834.41
2023-02-27T18:48:06.007Z,102826.41
2023-02-27T18:50:32.695Z,102828.50
2023-02-27T18:53:00.295Z,102827.78
2023-02-27T18:55:26.947Z,102831.50
2023-02-27T18:57:53.829Z,102831.03
2023-02-27T19:00:24.254Z,102826.00
2023-02-27T19:02:51.955Z,102833.81
2023-02-27T19:05:19.413Z,102835.69
2023-02-27T19:07:46.471Z,102836.03
2023-02-27T19:10:15.091Z,102838.28
2023-02-27T19:12:42.633Z,102840.53
2023-02-27T19:15:10.769Z,102837.66
2023-02-27T19:17:37.805Z,102835.09
2023-02-27T19:20:07.846Z,102842.59
2023-02-27T19:22:34.928Z,102848.03
2023-02-27T19:25:01.617Z,102846.22
2023-02-27T19:27:31.159Z,102849.84
2023-02-27T19:29:57.818Z,102843.16
2023-02-27T19:32:24.681Z,102842.47
2023-02-27T19:34:51.482Z,102848.19
2023-02-27T19:37:18.258Z,102849.97
2023-02-27T19:39:45.164Z,102853.03
2023-02-27T19:42:12.214Z,102842.81
2023-02-27T19:44:40.485Z,102845.16
2023-02-27T19:47:07.263Z,102848.75
2023-02-27T19:49:34.028Z,102840.31
2023-02-27T19:52:00.748Z,102850.44
2023-02-27T19:54:27.875Z,102851.59
2023-02-27T19:56:54.991Z,102855.59
2023-02-27T19:59:24.627Z,102845.56
2023-02-27T20:01:51.977Z,102845.50
2023-02-27T20:04:18.987Z,102849.91
2023-02-27T20:06:49.480Z,102849.06
2023-02-27T20:09:17.873Z,102848.50
2023-02-27T20:11:51.611Z,102854.69
2023-02-27T20:14:18.355Z,102855.41
2023-02-27T20:16:45.856Z,102866.75
2023-02-27T20:19:14.802Z,102854.19
2023-02-27T20:21:41.640Z,102860.88
2023-02-27T20:24:10.346Z,102855.28
2023-02-27T20:26:43.183Z,102856.09
2023-02-27T20:29:13.463Z,102858.97
2023-02-27T20:31:42.548Z,102866.72
2023-02-27T20:34:11.438Z,102863.69
2023-02-27T20:36:39.569Z,102864.78
2023-02-27T20:39:06.960Z,102863.09
2023-02-27T20:41:54.029Z,102859.78
2023-02-27T20:44:20.646Z,102860.38
2023-02-27T20:46:49.306Z,102853.56
2023-02-27T20:49:16.982Z,102862.34
2023-02-27T20:51:44.441Z,102856.03
2023-02-27T20:54:20.082Z,102862.19
2023-02-27T20:56:48.569Z,102866.28
2023-02-27T20:59:16.859Z,102866.00
2023-02-27T21:01:51.614Z,102861.63
2023-02-27T21:04:24.911Z,102868.56
2023-02-27T21:06:52.946Z,102864.78
2023-02-27T21:09:19.506Z,102864.72
2023-02-27T21:11:46.108Z,102865.69
2023-02-27T21:14:12.993Z,102862.13
2023-02-27T21:16:40.519Z,102851.81
2023-02-27T21:19:08.122Z,102863.25
2023-02-27T21:21:35.553Z,102869.66
2023-02-27T21:24:02.574Z,102869.41
2023-02-27T21:26:34.954Z,102868.03
2023-02-27T21:29:05.503Z,102861.41
2023-02-27T21:31:33.527Z,102867.50
2023-02-27T21:34:04.363Z,102863.31
2023-02-27T21:36:34.161Z,102869.38
2023-02-27T21:39:04.585Z,102870.34
2023-02-27T21:41:31.683Z,102867.06
2023-02-27T21:44:05.218Z,102871.59
2023-02-27T21:46:32.716Z,102872.81
2023-02-27T21:48:59.258Z,102884.09
2023-02-27T21:51:39.343Z,102874.78
2023-02-27T21:54:09.110Z,102874.97
2023-02-27T21:56:40.573Z,102879.16
2023-02-27T21:59:09.274Z,102870.03
2023-02-27T22:01:38.710Z,102872.69
2023-02-27T22:04:07.403Z,102874.56
2023-02-27T22:06:40.509Z,102869.50
2023-02-27T22:09:08.941Z,102869.00
2023-02-27T22:11:35.896Z,102872.63
2023-02-27T22:14:08.775Z,102864.06
2023-02-27T22:16:42.022Z,102862.38
2023-02-27T22:19:21.906Z,102864.06
2023-02-27T22:21:48.642Z,102863.34
2023-02-27T22:24:15.639Z,102860.84
2023-02-27T22:26:42.625Z,102863.50
2023-02-27T22:29:09.367Z,102857.38
2023-02-27T22:31:37.797Z,102861.69
2023-02-27T22:34:12.130Z,102873.06
2023-02-27T22:36:41.138Z,102872.53
2023-02-27T22:39:08.518Z,102866.56
2023-02-27T22:41:41.375Z,102874.47
2023-02-27T22:44:09.545Z,102867.13
2023-02-27T22:46:40.955Z,102875.44
2023-02-27T22:49:14.804Z,102878.88
2023-02-27T22:51:41.532Z,102881.38
2023-02-27T22:54:10.136Z,102879.78
2023-02-27T22:56:37.205Z,102886.16
2023-02-27T22:59:05.384Z,102882.31
2023-02-27T23:01:34.477Z,102881.78
2023-02-27T23:04:07.383Z,102884.00
2023-02-27T23:06:39.512Z,102883.50
2023-02-27T23:09:08.098Z,102885.44
2023-02-27T23:11:35.020Z,102884.63
2023-02-27T23:14:01.691Z,102896.22
2023-02-27T23:16:28.788Z,102889.69
2023-02-27T23:18:58.312Z,102885.75
2023-02-27T23:21:34.392Z,102887.53
2023-02-27T23:24:07.946Z,102896.84
2023-02-27T23:26:39.487Z,102891.72
2023-02-27T23:29:06.615Z,102885.25
2023-02-27T23:31:35.577Z,102887.84
2023-02-27T23:34:05.575Z,102886.13
2023-02-27T23:36:33.914Z,102885.41
2023-02-27T23:39:02.962Z,102880.84
2023-02-27T23:41:30.331Z,102887.81
2023-02-27T23:43:57.335Z,102876.47
2023-02-27T23:46:24.145Z,102885.16
2023-02-27T23:48:50.749Z,102899.16
2023-02-27T23:51:17.315Z,102900.13
2023-02-27T23:53:44.921Z,102904.63
2023-02-27T23:56:21.461Z,102903.78
2023-02-27T23:58:53.097Z,102903.06
